Flight Track Log - Related Links

Times and Time Zones

All times are in EST time to prevent confusion due to time zone crossing. See the AAY809 flight status page for this flight to view local times or setup timezone preferences in your user account.

Time Position Orientation Groundspeed Altitude Reporting Facility
EST Latitude Longitude Course Direction KTS MPH feet Rate Location/Type
Mon 11:20:31 AM 43.5247 -96.6922 133° Southeast 220 253 5,900  Level Minneapolis Center
Mon 11:21:33 AM 43.5144 -96.5969 98° East 236 272 8,600 2,806 Climbing Minneapolis Center
Mon 11:22:35 AM 43.4672 -96.5031 125° Southeast 284 327 11,700 2,565 Climbing Minneapolis Center
Mon 11:23:37 AM 43.3917 -96.3950 134° Southeast 321 369 13,900 1,968 Climbing Minneapolis Center
Mon 11:26:42 AM 43.1489 -96.0386 132° Southeast 439 505 19,800 1,895 Climbing Minneapolis Center
Mon 11:27:44 AM 43.0594 -95.9097 134° Southeast 462 532 21,700 1,951 Climbing Minneapolis Center
Mon 11:28:45 AM 42.9681 -95.7767 133° Southeast 476 548 23,800 2,049 Climbing Minneapolis Center
Mon 11:29:47 AM 42.8756 -95.6444 134° Southeast 483 556 25,900 1,935 Climbing Minneapolis Center
Mon 11:30:49 AM 42.7631 -95.4836 134° Southeast 489 563 27,800 1,597 Climbing Minneapolis Center
Mon 11:31:51 AM 42.6739 -95.3539 133° Southeast 490 564 29,200 1,210 Climbing Minneapolis Center
Mon 11:32:00 AM 42.7214 -95.4238 132° Southeast  Level FlightAware Approximate
Mon 11:32:53 AM 42.5781 -95.2203 134° Southeast 491 565 30,300  Level Minneapolis Center
Mon 11:33:54 AM 42.4842 -95.0878 134° Southeast 488 562 31,800 1,122 Climbing Minneapolis Center
Mon 11:34:56 AM 42.3897 -94.9556 134° Southeast 488 562 32,600 581 Climbing Minneapolis Center
Mon 11:35:58 AM 42.2958 -94.8244 134° Southeast 485 558 33,000 194 Climbing Minneapolis Center
Mon 11:37:00 AM 42.1775 -94.6594 134° Southeast 502 578 33,000  Level Minneapolis Center
Mon 11:39:17 AM 41.9603 -94.3558 134° Southeast 501 577 33,000  Level Kansas City Center
Mon 11:40:07 AM 41.8844 -94.2567 136° Southeast 502 578 33,000  Level Minneapolis Center
Mon 11:41:09 AM 41.7864 -94.1231 135° Southeast 502 578 33,000  Level Minneapolis Center
Mon 11:42:10 AM 41.6867 -93.9878 135° Southeast 505 581 33,000  Level Minneapolis Center
Mon 11:43:12 AM 41.5842 -93.8506 135° Southeast 508 585 33,000  Level Minneapolis Center
Mon 11:45:16 AM 41.3525 -93.5761 138° Southeast 507 583 33,000  Level Minneapolis Center
Mon 11:46:18 AM 41.2347 -93.4831 149° Southeast 502 578 33,000  Level Minneapolis Center
Mon 11:47:19 AM 41.1169 -93.3867 148° Southeast 499 574 33,000  Level Minneapolis Center
Mon 11:48:34 AM 40.9769 -93.2711 148° Southeast 496 571 33,000  Level Minneapolis Center
Mon 11:49:35 AM 40.8600 -93.1750 148° Southeast 497 572 33,000  Level Minneapolis Center
Mon 11:50:37 AM 40.7422 -93.0806 149° Southeast 497 572 33,000  Level Minneapolis Center
Mon 11:51:39 AM 40.5994 -92.9653 148° Southeast 500 575 33,000  Level Minneapolis Center
Mon 11:52:45 AM 40.4806 -92.8689 148° Southeast 505 581 33,000  Level Chicago Center
Mon 11:53:41 AM 40.3703 -92.7806 149° Southeast 505 581 33,000  Level Kansas City Center
Mon 11:54:43 AM 40.2353 -92.6722 148° Southeast 508 585 33,000  Level Kansas City Center
Mon 11:55:45 AM 40.1211 -92.5803 148° Southeast 505 581 33,000  Level Kansas City Center
Mon 11:56:47 AM 39.9972 -92.4539 142° Southeast 511 588 33,000  Level Kansas City Center
Mon 11:57:49 AM 39.8836 -92.3406 143° Southeast 516 594 33,000  Level Kansas City Center
Mon 11:58:51 AM 39.7694 -92.2294 143° Southeast 516 594 33,000  Level Kansas City Center
Mon 11:59:52 AM 39.6558 -92.1172 143° Southeast 515 593 33,000  Level Kansas City Center
Mon 12:00:54 PM 39.5414 -92.0039 143° Southeast 518 596 33,000  Level Kansas City Center
Mon 12:01:56 PM 39.4033 -91.8708 143° Southeast 517 595 33,000  Level Kansas City Center
Mon 12:02:58 PM 39.2894 -91.7600 143° Southeast 515 593 33,000  Level Kansas City Center
Mon 12:05:01 PM 39.0692 -91.5442 142° Southeast 518 596 33,000  Level Kansas City Center
Mon 12:06:03 PM 38.9539 -91.4333 143° Southeast 519 597 33,000  Level Kansas City Center
Mon 12:07:05 PM 38.8158 -91.3022 143° Southeast 519 597 33,000  Level Kansas City Center
Mon 12:09:01 PM 38.5922 -91.0903 143° Southeast 509 586 33,000  Level Memphis Center
Mon 12:11:11 PM 38.3639 -90.8761 144° Southeast 507 583 33,000  Level Kansas City Center
Mon 12:13:15 PM 38.1158 -90.6447 144° Southeast 508 585 33,000  Level Kansas City Center
Mon 12:15:11 PM 37.9039 -90.4478 144° Southeast 507 583 33,000  Level Memphis Center
Mon 12:16:20 PM 37.7764 -90.3333 145° Southeast 501 577 33,000  Level Kansas City Center
Mon 12:17:22 PM 37.6611 -90.2306 145° Southeast 506 582 33,000  Level Kansas City Center
Mon 12:18:24 PM 37.5253 -90.1033 143° Southeast 508 585 33,000  Level Kansas City Center
Mon 12:19:25 PM 37.4183 -90.0061 144° Southeast 506 582 33,000  Level Kansas City Center
Mon 12:20:27 PM 37.3053 -89.9022 144° Southeast 503 579 33,000  Level Kansas City Center
Mon 12:21:29 PM 37.1925 -89.7992 144° Southeast 501 577 33,000  Level Kansas City Center
Mon 12:22:31 PM 37.0789 -89.6969 144° Southeast 501 577 33,000  Level Kansas City Center
Mon 12:23:26 PM 36.9669 -89.5964 144° Southeast 499 574 33,000  Level Memphis Center
Mon 12:24:28 PM 36.8536 -89.4947 144° Southeast 500 575 33,000  Level Memphis Center
Mon 12:25:30 PM 36.7406 -89.3939 144° Southeast 497 572 33,000  Level Memphis Center
Mon 12:26:32 PM 36.6247 -89.2914 145° Southeast 502 578 33,000  Level Memphis Center
Mon 12:28:35 PM 36.3908 -89.0850 146° Southeast 503 579 33,000  Level Memphis Center
Mon 12:29:37 PM 36.2528 -88.9636 145° Southeast 502 578 33,000  Level Memphis Center
Mon 12:31:41 PM 36.0222 -88.7625 145° Southeast 505 581 33,000  Level Memphis Center
Mon 12:32:42 PM 35.9050 -88.6611 145° Southeast 511 588 33,000  Level Memphis Center
Mon 12:33:44 PM 35.7897 -88.5611 145° Southeast 508 585 33,000  Level Memphis Center
Mon 12:34:46 PM 35.6744 -88.4617 145° Southeast 505 581 33,000  Level Memphis Center
Mon 12:35:48 PM 35.5603 -88.3625 145° Southeast 502 578 33,000  Level Memphis Center
Mon 12:36:50 PM 35.4453 -88.2656 146° Southeast 500 575 33,000  Level Memphis Center
Mon 12:38:53 PM 35.2011 -88.0575 147° Southeast 501 577 33,000  Level Memphis Center
Mon 12:39:55 PM 35.0861 -87.9619 146° Southeast 500 575 33,000 145 Level Memphis Center
Mon 12:40:57 PM 34.9722 -87.8647 145° Southeast 500 575 33,300 484 Climbing Memphis Center
Mon 12:41:59 PM 34.8594 -87.7706 146° Southeast 494 568 34,000 341 Climbing Memphis Center
Mon 12:43:00 PM 34.7228 -87.6553 145° Southeast 496 571 34,000 -259 Level Memphis Center
Mon 12:45:04 PM 34.5017 -87.4719 146° Southeast 491 565 33,200 -323 Descending Memphis Center
Mon 12:46:06 PM 34.3878 -87.3781 146° Southeast 490 564 33,000 -97 Descending Memphis Center
Mon 12:47:08 PM 34.2744 -87.2850 146° Southeast 488 562 33,000  Level Memphis Center
Mon 12:48:09 PM 34.1514 -87.1839 146° Southeast 491 565 33,000  Level Memphis Center
Mon 12:50:11 PM 33.9256 -86.9981 146° Southeast 492 566 33,000  Level Atlanta Center
Mon 12:51:11 PM 33.8131 -86.9067 146° Southeast 492 566 33,000  Level Atlanta Center
Mon 12:53:11 PM 33.5897 -86.7244 146° Southeast 492 566 33,000  Level Atlanta Center
Mon 12:54:11 PM 33.4767 -86.6339 146° Southeast 492 566 33,000  Level Atlanta Center
Mon 12:58:11 PM 33.0206 -86.2686 146° Southeast 482 555 33,000  Level Atlanta Center
Mon 12:59:11 PM 32.9075 -86.1792 146° Southeast 475 547 33,000  Level Atlanta Center
Mon 01:00:11 PM 32.7942 -86.0897 146° Southeast 488 562 33,000  Level Atlanta Center
Mon 01:01:11 PM 32.6786 -85.9983 146° Southeast 493 567 33,000  Level Atlanta Center
Mon 01:02:11 PM 32.5694 -85.9119 146° Southeast 493 567 33,000  Level Atlanta Center
Mon 01:03:00 PM 32.5485 -85.8902 146° Southeast  Level FlightAware Approximate
Mon 01:03:11 PM 32.4539 -85.8283 149° Southeast 493 567 33,000  Level Atlanta Center
Mon 01:04:11 PM 32.3464 -85.7378 145° Southeast 488 562 33,000  Level Atlanta Center
Mon 01:05:11 PM 32.2350 -85.6497 146° Southeast 483 556 33,000  Level Atlanta Center
Mon 01:06:11 PM 32.1214 -85.5617 147° Southeast 478 550 33,000  Level Atlanta Center
Mon 01:07:11 PM 32.0094 -85.4792 148° Southeast 478 550 33,000  Level Atlanta Center
Mon 01:10:23 PM 31.6547 -85.2064 147° Southeast 484 557 33,000  Level Jacksonville Center
Mon 01:11:23 PM 31.5436 -85.1231 147° Southeast 472 543 33,000  Level Jacksonville Center
Mon 01:12:23 PM 31.4303 -85.0353 147° Southeast 477 549 33,000  Level Jacksonville Center
Mon 01:13:23 PM 31.3189 -84.9500 147° Southeast 482 555 33,000  Level Jacksonville Center
Mon 01:14:23 PM 31.2075 -84.8672 148° Southeast 482 555 33,000  Level Jacksonville Center
Mon 01:15:23 PM 31.0981 -84.7825 146° Southeast 482 555 33,000  Level Jacksonville Center
Mon 01:17:23 PM 30.8750 -84.6136 147° Southeast 476 548 33,000  Level Jacksonville Center
Mon 01:20:23 PM 30.5606 -84.3786 147° Southeast 476 548 33,000  Level Jacksonville Center
Mon 01:21:23 PM 30.4364 -84.2972 151° Southeast 476 548 33,000 -50 Level Jacksonville Center
Mon 01:22:23 PM 30.3203 -84.2208 150° Southeast 476 548 32,900  Descending Jacksonville Center
Mon 01:23:23 PM 30.1978 -84.1400 150° Southeast 471 542 33,000 -75 Climbing Jacksonville Center
Mon 01:26:23 PM 29.8531 -83.9175 149° Southeast 471 542 32,600 -275 Descending Jacksonville Center
Mon 01:27:23 PM 29.7494 -83.8519 151° Southeast 471 542 31,900 -650 Descending Jacksonville Center
Mon 01:28:23 PM 29.6331 -83.7767 151° Southeast 471 542 31,300 -950 Descending Jacksonville Center
Mon 01:29:23 PM 29.5186 -83.7039 151° Southeast 476 548 30,000 -1,300 Descending Jacksonville Center
Mon 01:30:23 PM 29.4022 -83.6267 150° Southeast 476 548 28,700 -1,400 Descending Jacksonville Center
Mon 01:31:23 PM 29.2836 -83.5544 152° Southeast 476 548 27,200 -1,433 Descending Jacksonville Center
Mon 01:33:23 PM 29.0483 -83.4033 151° Southeast 483 556 24,400 -1,067 Descending Jacksonville Center
Mon 01:34:23 PM 28.9339 -83.3314 151° Southeast 478 550 24,000 -750 Descending Jacksonville Center
Mon 01:35:23 PM 28.8214 -83.2600 151° Southeast 478 550 22,900 -2,000 Descending Jacksonville Center
Mon 01:36:23 PM 28.7108 -83.1861 150° Southeast 473 544 20,000 -2,913 Descending Jacksonville Center
Mon 01:37:41 PM 28.5667 -83.1000 152° Southeast 434 499 16,200 -2,913 Descending Tampa TRACON
Mon 01:38:41 PM 28.4500 -83.0333 153° Southeast 417 480 13,300 -1,947 Descending Tampa TRACON
Mon 01:39:35 PM 28.3667 -82.9667 145° Southeast 394 453 12,500 -1,100 Descending Tampa TRACON
Mon 01:40:41 PM 28.2667 -82.9167 156° South 346 398 11,100 -1,143 Descending Tampa TRACON
Mon 01:41:41 PM 28.2000 -82.8667 147° Southeast 318 366 10,100 -1,250 Descending Tampa TRACON
Mon 01:42:41 PM 28.1167 -82.8333 161° South 287 330 8,600 -1,565 Descending Tampa TRACON
Mon 01:43:36 PM 28.0500 -82.8000 156° South 285 328 7,100 -1,704 Descending Tampa TRACON
Mon 01:45:30 PM 27.9000 -82.7833 190° South 254 292 3,800 -1,410 Descending Tampa TRACON
Mon 01:47:30 PM 27.8333 -82.7000 132° Southeast 169 194 1,600 -1,033 Descending Tampa TRACON
Mon 01:48:30 PM 27.8667 -82.6833 24° Northeast 142 163 700 -900 Descending Tampa TRACON

Login

Don't have an account? Register now (free) for customized features, flight alerts, and more!